Time;durP1;ratioP1;P1;durP2;ratioP2;P2;SDS_P1;SDS_P2;PMS_P1;PMS_P2;Temp;Humidity;BMP_temperature;BMP_pressure;BME280_temperature;BME280_humidity;BME280_pressure;Samples;Min_cycle;Max_cycle;Signal;HPM_P1;HPM_P2
2022/10/30 00:04:26;;;;;;;13.87;3.90;;;12.40;99.90;;;;;;21079053;28;20036;-76
2022/10/30 00:14:27;;;;;;;21.53;5.00;;;12.20;99.90;;;;;;21096274;28;20083;-76
2022/10/30 00:24:28;;;;;;;12.37;4.03;;;12.20;99.90;;;;;;21077546;28;20051;-76
2022/10/30 00:34:29;;;;;;;16.77;3.67;;;12.20;99.90;;;;;;21077197;28;20123;-77
2022/10/30 00:44:53;;;;;;;20.00;3.90;;;12.20;99.90;;;;;;21082245;28;20552;-77
2022/10/30 00:54:56;;;;;;;14.98;4.93;;;11.80;99.90;;;;;;20993535;28;20111;-76
2022/10/30 01:04:57;;;;;;;17.52;5.05;;;11.80;99.90;;;;;;20986555;28;20074;-76
2022/10/30 01:14:59;;;;;;;16.67;5.83;;;11.70;99.90;;;;;;21003859;28;20028;-76
2022/10/30 01:25:20;;;;;;;13.57;5.97;;;11.70;99.90;;;;;;20982702;28;20383;-76
2022/10/30 01:35:55;;;;;;;25.10;6.53;;;11.60;99.90;;;;;;20984345;28;20055;-76
2022/10/30 01:46:06;;;;;;;12.68;5.60;;;11.60;99.90;;;;;;20982355;28;20029;-76
2022/10/30 01:56:22;;;;;;;12.82;5.13;;;11.60;99.90;;;;;;20966978;28;20028;-76
2022/10/30 02:06:24;;;;;;;15.27;6.03;;;11.50;99.90;;;;;;20985015;28;20510;-76
2022/10/30 02:16:24;;;;;;;;;;;11.60;99.90;;;;;;20979577;28;20063;-76
2022/10/30 02:26:25;;;;;;;13.15;5.13;;;11.70;99.90;;;;;;20998254;28;20286;-76
2022/10/30 02:36:26;;;;;;;22.07;6.13;;;11.70;99.90;;;;;;20981803;28;20056;-76
2022/10/30 02:46:29;;;;;;;18.00;6.45;;;11.80;99.90;;;;;;21017092;28;20039;-75
2022/10/30 02:56:30;;;;;;;24.57;6.63;;;11.80;99.90;;;;;;20997863;28;20057;-75
2022/10/30 03:06:31;;;;;;;11.47;5.37;;;11.60;99.90;;;;;;21002689;28;20056;-76
2022/10/30 03:16:32;;;;;;;19.93;5.77;;;11.50;99.90;;;;;;21008315;28;20060;-76
2022/10/30 03:26:33;;;;;;;13.77;5.60;;;11.40;99.90;;;;;;20934061;28;20097;-76
2022/10/30 03:36:40;;;;;;;13.40;5.93;;;11.40;99.90;;;;;;21032507;28;20071;-76
2022/10/30 03:46:41;;;;;;;21.30;5.75;;;11.40;99.90;;;;;;21039344;28;20050;-76
2022/10/30 03:56:53;;;;;;;;;;;11.40;99.90;;;;;;21060841;28;20696;-76
2022/10/30 04:06:55;;;;;;;11.03;6.13;;;11.30;99.90;;;;;;21074567;28;19915;-76
2022/10/30 04:16:56;;;;;;;;;;;11.20;99.90;;;;;;21070891;28;20136;-76
2022/10/30 04:26:57;;;;;;;13.48;5.45;;;11.10;99.90;;;;;;21072529;28;19908;-76
2022/10/30 04:36:58;;;;;;;;;;;11.30;99.90;;;;;;21073524;28;20028;-76
2022/10/30 04:46:59;;;;;;;11.50;4.72;;;11.30;99.90;;;;;;21091090;28;19911;-77
2022/10/30 04:57:01;;;;;;;18.45;5.35;;;11.10;99.90;;;;;;21077390;28;20518;-77
2022/10/30 05:07:04;;;;;;;18.35;5.47;;;10.70;99.90;;;;;;21084406;28;20028;-76
2022/10/30 05:17:05;;;;;;;21.27;6.73;;;10.60;99.90;;;;;;21058951;28;20094;-76
2022/10/30 05:27:07;;;;;;;11.40;5.80;;;10.90;99.90;;;;;;21077447;28;20324;-76
2022/10/30 05:37:09;;;;;;;14.55;5.10;;;11.10;99.90;;;;;;21052012;28;20042;-77
2022/10/30 05:47:11;;;;;;;15.83;5.10;;;10.80;99.90;;;;;;21053280;28;20491;-76
2022/10/30 05:57:13;;;;;;;15.40;5.55;;;10.50;99.90;;;;;;21072520;28;20035;-78
2022/10/30 06:07:15;;;;;;;8.60;5.13;;;10.30;99.90;;;;;;21073377;28;20040;-77
2022/10/30 06:17:16;;;;;;;16.98;5.80;;;10.20;99.90;;;;;;20995972;28;20119;-78
2022/10/30 06:27:42;;;;;;;19.48;6.68;;;10.10;99.90;;;;;;20991746;28;20047;-78
2022/10/30 06:37:47;;;;;;;10.83;6.30;;;10.20;99.90;;;;;;20993347;28;20029;-78
2022/10/30 06:47:49;;;;;;;11.77;6.45;;;10.10;99.90;;;;;;21002685;28;20058;-78
2022/10/30 06:57:54;;;;;;;17.15;6.97;;;10.20;99.90;;;;;;20982749;28;20060;-76
2022/10/30 07:08:14;;;;;;;15.52;6.60;;;10.40;99.90;;;;;;21012146;28;20067;-78
2022/10/30 07:18:15;;;;;;;11.87;5.40;;;10.70;99.90;;;;;;21016027;28;20036;-78
2022/10/30 07:28:16;;;;;;;14.97;6.20;;;10.50;99.90;;;;;;21007057;28;20052;-78
2022/10/30 07:38:26;;;;;;;12.50;4.90;;;10.50;99.90;;;;;;21048535;28;20121;-79
2022/10/30 07:48:32;;;;;;;10.80;5.68;;;11.00;99.90;;;;;;21028868;28;20031;-79
2022/10/30 07:58:42;;;;;;;10.88;5.50;;;11.70;99.90;;;;;;21080755;28;20529;-78
2022/10/30 08:09:09;;;;;;;8.98;4.68;;;11.80;99.90;;;;;;21058316;28;20526;-78
2022/10/30 08:19:11;;;;;;;7.85;5.28;;;11.90;99.90;;;;;;21004992;28;20372;-78
2022/10/30 08:29:12;;;;;;;;;;;11.80;99.90;;;;;;21027937;28;20039;-78
2022/10/30 08:39:13;;;;;;;11.23;5.97;;;11.60;99.90;;;;;;21031441;28;19966;-78
2022/10/30 08:49:19;;;;;;;13.43;7.10;;;12.40;99.90;;;;;;21001395;28;20052;-78
2022/10/30 08:59:26;;;;;;;14.43;6.53;;;12.00;99.90;;;;;;21006039;28;20025;-77
2022/10/30 09:09:31;;;;;;;10.10;5.80;;;12.60;99.90;;;;;;20983625;28;20051;-78
2022/10/30 09:19:35;;;;;;;11.02;6.43;;;12.80;99.90;;;;;;21020367;28;20060;-79
2022/10/30 09:29:36;;;;;;;11.03;7.07;;;13.10;99.90;;;;;;20999432;28;20063;-78
2022/10/30 09:39:39;;;;;;;10.98;5.90;;;13.40;99.90;;;;;;20998407;28;20029;-79
2022/10/30 09:49:58;;;;;;;7.55;5.00;;;14.00;99.90;;;;;;20981019;28;20025;-77
2022/10/30 10:00:10;;;;;;;10.45;6.40;;;15.20;99.90;;;;;;20994848;28;20039;-78
2022/10/30 10:10:29;;;;;;;9.68;6.70;;;14.30;99.90;;;;;;21044974;28;20145;-78
2022/10/30 10:20:41;;;;;;;12.30;7.25;;;14.60;99.90;;;;;;21027464;28;20077;-78
2022/10/30 10:31:26;;;;;;;11.57;6.35;;;15.90;99.90;;;;;;20994932;28;20040;-77
2022/10/30 10:41:50;;;;;;;11.13;5.57;;;17.00;99.90;;;;;;20897599;28;20044;-76
2022/10/30 10:52:10;;;;;;;14.90;7.68;;;17.40;99.90;;;;;;20995054;28;20032;-76
2022/10/30 11:02:29;;;;;;;19.13;7.13;;;17.50;99.90;;;;;;20971365;28;20128;-76
2022/10/30 11:12:34;;;;;;;16.38;7.35;;;18.00;99.90;;;;;;21003594;28;20028;-76
2022/10/30 11:22:39;;;;;;;27.17;7.40;;;17.70;99.90;;;;;;20932865;28;20020;-76
2022/10/30 11:32:39;;;;;;;13.70;7.03;;;17.90;99.90;;;;;;21029449;28;20025;-76
2022/10/30 11:42:53;;;;;;;15.30;7.03;;;19.00;99.90;;;;;;20988723;28;20043;-77
2022/10/30 11:53:08;;;;;;;12.93;6.40;;;19.40;99.90;;;;;;20987000;28;20114;-76
2022/10/30 12:03:28;;;;;;;18.30;6.80;;;19.40;99.90;;;;;;21009649;28;20032;-77
2022/10/30 12:13:36;;;;;;;15.35;7.28;;;19.90;99.90;;;;;;20988428;28;20029;-75
2022/10/30 12:23:38;;;;;;;13.70;6.30;;;19.30;99.90;;;;;;21000243;28;20078;-76
2022/10/30 12:34:02;;;;;;;15.23;7.65;;;18.90;99.90;;;;;;20978978;28;20040;-76
2022/10/30 12:44:06;;;;;;;15.50;6.43;;;19.20;99.90;;;;;;20998628;28;20044;-76
2022/10/30 12:54:28;;;;;;;13.82;6.82;;;19.40;99.90;;;;;;20997454;28;20033;-76
2022/10/30 13:04:35;;;;;;;;;;;18.30;99.90;;;;;;21001449;28;20036;-76
2022/10/30 13:14:56;;;;;;;18.35;6.80;;;18.10;99.90;;;;;;20995205;28;19912;-76
2022/10/30 13:25:05;;;;;;;16.27;7.75;;;18.60;99.90;;;;;;20995475;28;20032;-76
2022/10/30 13:35:28;;;;;;;19.27;7.25;;;19.30;99.90;;;;;;20993509;28;20163;-77
2022/10/30 13:45:45;;;;;;;22.67;6.95;;;18.70;99.90;;;;;;21012577;28;20029;-76
2022/10/30 13:55:48;;;;;;;19.52;6.90;;;18.90;99.90;;;;;;20975213;28;20033;-77
2022/10/30 14:06:06;;;;;;;12.32;5.60;;;19.90;99.90;;;;;;20984232;28;20499;-78
2022/10/30 14:16:36;;;;;;;14.80;6.15;;;20.60;99.90;;;;;;20990447;28;20039;-78
2022/10/30 14:26:39;;;;;;;16.73;6.80;;;20.10;99.90;;;;;;21002482;28;20082;-78
2022/10/30 14:36:43;;;;;;;15.95;6.53;;;20.40;99.90;;;;;;21002952;28;20036;-78
2022/10/30 14:47:08;;;;;;;18.05;7.13;;;20.60;99.90;;;;;;20989567;28;20043;-78
2022/10/30 14:57:46;;;;;;;20.90;6.63;;;20.10;99.90;;;;;;21001841;28;20466;-78
2022/10/30 15:07:53;;;;;;;18.58;7.03;;;19.70;99.90;;;;;;20977596;28;20048;-78
2022/10/30 15:17:58;;;;;;;21.20;7.00;;;19.40;99.90;;;;;;21015615;28;20029;-78
2022/10/30 15:27:59;;;;;;;17.77;7.00;;;19.10;99.90;;;;;;21014929;28;20036;-77
2022/10/30 15:38:08;;;;;;;13.50;6.15;;;18.80;99.90;;;;;;20995110;28;20032;-77
2022/10/30 15:48:23;;;;;;;13.05;5.70;;;18.10;99.90;;;;;;21012168;28;20037;-77
2022/10/30 15:58:24;;;;;;;20.33;5.95;;;17.60;99.90;;;;;;20989889;28;20040;-76
2022/10/30 16:08:25;;;;;;;18.00;5.60;;;16.70;99.90;;;;;;20986938;28;20032;-77
2022/10/30 16:18:29;;;;;;;24.07;5.70;;;16.20;99.90;;;;;;21003889;28;20029;-78
2022/10/30 16:28:36;;;;;;;15.45;6.00;;;16.00;99.90;;;;;;21010167;28;20032;-77
2022/10/30 16:38:37;;;;;;;18.50;6.18;;;16.00;99.90;;;;;;20977765;28;20509;-77
2022/10/30 16:48:57;;;;;;;17.38;6.50;;;15.40;99.90;;;;;;20998548;28;20029;-77
2022/10/30 16:59:26;;;;;;;13.98;6.00;;;14.90;99.90;;;;;;21003258;28;20077;-78
2022/10/30 17:09:29;;;;;;;19.45;5.28;;;15.10;99.90;;;;;;21003782;28;20036;-78
2022/10/30 17:19:29;;;;;;;23.23;5.68;;;15.00;99.90;;;;;;20985830;28;20368;-77
2022/10/30 17:29:36;;;;;;;17.33;6.37;;;15.10;99.90;;;;;;21001253;28;20038;-77
2022/10/30 17:39:37;;;;;;;14.55;5.60;;;15.00;99.90;;;;;;20998134;28;20438;-77
2022/10/30 17:49:38;;;;;;;21.50;6.07;;;14.80;99.90;;;;;;20999444;28;20028;-77
2022/10/30 17:59:39;;;;;;;22.13;6.40;;;14.30;99.90;;;;;;20978579;28;20066;-76
2022/10/30 18:09:41;;;;;;;15.02;5.53;;;13.80;99.90;;;;;;20992597;28;20029;-77
2022/10/30 18:19:42;;;;;;;16.70;5.15;;;13.60;99.90;;;;;;21029599;28;20021;-78
2022/10/30 18:29:43;;;;;;;13.27;4.63;;;13.20;99.90;;;;;;21009333;28;20108;-77
2022/10/30 18:39:44;;;;;;;21.70;6.17;;;13.20;99.90;;;;;;20994879;28;20111;-77
2022/10/30 18:49:44;;;;;;;11.77;4.93;;;13.00;99.90;;;;;;20975348;28;20056;-77
2022/10/30 18:59:45;;;;;;;9.83;5.17;;;12.90;99.90;;;;;;20993144;28;20032;-77
2022/10/30 19:09:46;;;;;;;22.80;5.10;;;12.70;99.90;;;;;;20991588;28;20108;-78
2022/10/30 19:19:47;;;;;;;13.73;4.27;;;12.60;99.90;;;;;;20979210;28;20426;-78
2022/10/30 19:29:48;;;;;;;11.33;4.07;;;12.40;99.90;;;;;;20998072;28;20050;-77
2022/10/30 19:39:48;;;;;;;10.77;4.80;;;12.00;99.90;;;;;;20994206;28;20090;-78
2022/10/30 19:49:49;;;;;;;8.93;3.90;;;12.20;99.90;;;;;;20996019;28;20470;-77
2022/10/30 19:59:50;;;;;;;15.87;3.90;;;11.90;99.90;;;;;;21030795;28;20058;-77
2022/10/30 20:09:51;;;;;;;9.60;4.30;;;11.80;99.90;;;;;;21012399;28;20028;-78
2022/10/30 20:19:51;;;;;;;15.23;4.83;;;11.60;99.90;;;;;;21033356;28;20052;-77
2022/10/30 20:29:52;;;;;;;13.17;4.20;;;11.40;99.90;;;;;;21045774;28;20024;-77
2022/10/30 20:39:53;;;;;;;12.17;4.03;;;11.10;99.90;;;;;;21044590;28;20055;-77
2022/10/30 20:49:54;;;;;;;9.80;4.00;;;11.20;99.90;;;;;;21047819;28;20029;-77
2022/10/30 20:59:55;;;;;;;17.80;4.23;;;10.90;99.90;;;;;;21044186;28;20142;-76
2022/10/30 21:09:56;;;;;;;15.23;3.70;;;10.90;99.90;;;;;;20995844;28;20482;-77
2022/10/30 21:19:57;;;;;;;11.45;3.38;;;11.10;99.90;;;;;;20996890;28;20051;-76
2022/10/30 21:29:58;;;;;;;10.00;3.13;;;10.70;99.90;;;;;;21003581;28;20025;-77
2022/10/30 21:39:59;;;;;;;6.93;3.00;;;10.70;99.90;;;;;;21048673;28;20051;-76
2022/10/30 21:49:59;;;;;;;10.87;2.90;;;10.60;99.90;;;;;;21061137;28;20474;-76
2022/10/30 22:00:00;;;;;;;14.63;2.67;;;10.40;99.90;;;;;;20992813;28;20032;-77
2022/10/30 22:10:02;;;;;;;13.00;2.60;;;10.30;99.90;;;;;;20994379;28;20017;-77
2022/10/30 22:20:03;;;;;;;;;;;10.30;99.90;;;;;;20992404;28;20035;-77
2022/10/30 22:30:04;;;;;;;10.23;2.55;;;10.10;99.90;;;;;;21011157;28;20375;-74
2022/10/30 22:40:05;;;;;;;;;;;10.10;99.90;;;;;;21026529;28;20032;-75
2022/10/30 22:50:06;;;;;;;7.90;2.70;;;10.00;99.90;;;;;;21036940;28;19920;-75
2022/10/30 23:00:08;;;;;;;10.68;3.10;;;10.00;99.90;;;;;;21017830;28;20032;-75
2022/10/30 23:10:09;;;;;;;9.00;2.50;;;10.00;99.90;;;;;;21034731;28;20048;-76
2022/10/30 23:20:10;;;;;;;7.33;2.70;;;10.00;99.90;;;;;;21003441;28;20069;-75
2022/10/30 23:30:11;;;;;;;;;;;9.90;99.90;;;;;;21051883;28;20491;-75
2022/10/30 23:40:11;;;;;;;9.97;3.30;;;9.60;99.90;;;;;;21083461;28;19918;-75
2022/10/30 23:50:13;;;;;;;7.90;4.27;;;9.30;99.90;;;;;;21073725;28;20373;-75
